Time;durP1;ratioP1;P1;durP2;ratioP2;P2;SDS_P1;SDS_P2;PMS_P1;PMS_P2;Temp;Humidity;BMP_temperature;BMP_pressure;BME280_temperature;BME280_humidity;BME280_pressure;Samples;Min_cycle;Max_cycle;Signal;HPM_P1;HPM_P2
2021/04/08 00:00:09;;;;;;;8.35;3.70;;;;;;;5.28;74.19;102191.69;4137881;28;20030;-73
2021/04/08 00:02:11;;;;;;;5.68;3.85;;;;;;;5.27;74.78;102189.97;4137776;28;20374;-73
2021/04/08 00:04:12;;;;;;;6.22;4.40;;;;;;;5.27;75.19;102190.81;4137539;28;20038;-73
2021/04/08 00:06:14;;;;;;;8.10;4.70;;;;;;;5.21;74.90;102191.16;4137460;28;20030;-73
2021/04/08 00:08:15;;;;;;;6.57;4.28;;;;;;;5.24;75.92;102195.38;4137887;28;20104;-73
2021/04/08 00:10:17;;;;;;;7.47;4.45;;;;;;;5.22;75.13;102192.03;4137617;28;20160;-73
2021/04/08 00:12:18;;;;;;;6.82;3.10;;;;;;;5.28;75.78;102187.28;4137463;28;20034;-73
2021/04/08 00:14:19;;;;;;;5.95;3.35;;;;;;;5.41;75.48;102196.13;4137473;28;20041;-73
2021/04/08 00:16:21;;;;;;;7.00;2.90;;;;;;;5.41;74.70;102190.03;4137645;28;20073;-73
2021/04/08 00:18:22;;;;;;;4.65;2.72;;;;;;;5.49;74.95;102191.31;4152491;28;20080;-73
2021/04/08 00:20:23;;;;;;;5.85;2.78;;;;;;;5.52;74.09;102185.91;4137330;28;20034;-73
2021/04/08 00:22:25;;;;;;;3.45;2.60;;;;;;;5.46;74.39;102188.00;4137306;28;20085;-73
2021/04/08 00:24:26;;;;;;;6.15;2.88;;;;;;;5.48;74.70;102192.22;4137475;28;20379;-73
2021/04/08 00:26:27;;;;;;;5.70;3.55;;;;;;;5.41;74.90;102188.25;4137627;28;20093;-73
2021/04/08 00:28:28;;;;;;;5.43;2.95;;;;;;;5.38;75.17;102179.75;4137564;28;20045;-73
2021/04/08 00:30:30;;;;;;;5.35;3.08;;;;;;;5.25;75.29;102177.00;4137244;28;20032;-73
2021/04/08 00:32:31;;;;;;;5.93;3.60;;;;;;;5.17;76.33;102179.19;4137279;28;20039;-73
2021/04/08 00:34:33;;;;;;;6.90;3.10;;;;;;;5.29;77.22;102183.72;4137065;28;20524;-73
2021/04/08 00:36:34;;;;;;;4.75;3.22;;;;;;;5.27;77.22;102176.91;4137269;28;20034;-73
2021/04/08 00:38:36;;;;;;;4.57;3.20;;;;;;;5.42;77.27;102176.03;4136954;28;20111;-73
2021/04/08 00:40:38;;;;;;;3.15;2.60;;;;;;;5.43;77.89;102175.09;4137297;28;20157;-73
2021/04/08 00:42:40;;;;;;;4.50;3.05;;;;;;;5.47;77.57;102181.81;4137279;28;20069;-73
2021/04/08 00:44:41;;;;;;;4.43;2.97;;;;;;;5.63;76.70;102169.56;4137180;28;20069;-73
2021/04/08 00:46:42;;;;;;;6.13;3.53;;;;;;;5.72;76.10;102176.03;4136956;28;20246;-73
2021/04/08 00:48:44;;;;;;;5.15;3.08;;;;;;;5.65;75.93;102180.78;4137143;28;20069;-73
2021/04/08 00:50:45;;;;;;;4.50;3.28;;;;;;;5.58;76.54;102174.22;4137173;28;20026;-73
2021/04/08 00:53:01;;;;;;;3.65;2.50;;;;;;;5.65;76.23;102175.53;4136989;28;20042;-73
2021/04/08 00:55:03;;;;;;;4.50;2.75;;;;;;;5.68;76.39;102171.88;4136618;28;20073;-73
2021/04/08 00:57:05;;;;;;;6.13;4.07;;;;;;;5.67;77.21;102170.22;4137142;28;20090;-73
2021/04/08 00:59:07;;;;;;;6.32;3.22;;;;;;;5.84;76.18;102180.53;4136966;28;20440;-73
2021/04/08 01:01:08;;;;;;;6.32;3.30;;;;;;;6.00;75.33;102170.88;4136851;28;20040;-73
2021/04/08 01:03:11;;;;;;;6.88;4.63;;;;;;;5.96;75.33;102161.50;4137029;28;20022;-73
2021/04/08 01:05:13;;;;;;;4.13;3.00;;;;;;;5.86;75.51;102168.22;4136770;28;20041;-73
2021/04/08 01:07:14;;;;;;;4.70;3.13;;;;;;;5.85;75.52;102171.75;4136899;28;20030;-73
2021/04/08 01:09:16;;;;;;;5.60;4.45;;;;;;;5.75;75.88;102168.00;4136776;28;20038;-73
2021/04/08 01:11:17;;;;;;;4.60;3.10;;;;;;;5.74;76.22;102161.06;4136822;28;20058;-73
2021/04/08 01:13:20;;;;;;;4.85;2.90;;;;;;;5.70;77.00;102164.81;4136810;28;20030;-73
2021/04/08 01:15:26;;;;;;;5.45;3.13;;;;;;;5.73;77.04;102155.00;4135703;28;20037;-73
2021/04/08 01:17:52;;;;;;;4.60;3.13;;;;;;;5.75;77.12;102160.97;4136643;28;20057;-73
2021/04/08 01:20:05;;;;;;;6.63;3.63;;;;;;;5.81;77.28;102157.16;4136515;28;20062;-73
2021/04/08 01:22:24;;;;;;;4.65;3.28;;;;;;;5.81;77.50;102157.16;4136539;28;20101;-73
2021/04/08 01:24:38;;;;;;;4.70;2.95;;;;;;;5.85;77.23;102154.31;4136793;28;20468;-73
2021/04/08 01:27:03;;;;;;;4.35;3.20;;;;;;;5.77;77.58;102156.50;4136491;28;20085;-73
2021/04/08 01:29:15;;;;;;;6.47;3.30;;;;;;;5.80;77.65;102147.59;4135233;28;20551;-73
2021/04/08 01:31:18;;;;;;;5.95;3.50;;;;;;;5.91;77.47;102153.91;4136518;28;20126;-73
2021/04/08 01:33:24;;;;;;;4.20;3.10;;;;;;;5.83;77.55;102147.41;4136328;28;20026;-73
2021/04/08 01:35:30;;;;;;;6.55;3.30;;;;;;;6.03;76.32;102139.28;4136054;28;20065;-73
2021/04/08 01:37:40;;;;;;;5.88;3.08;;;;;;;5.97;76.23;102137.84;4136278;28;20078;-73
2021/04/08 01:39:43;;;;;;;4.18;3.00;;;;;;;5.88;76.50;102140.19;4134952;28;20030;-73
2021/04/08 01:41:47;;;;;;;4.00;3.13;;;;;;;5.76;76.65;102131.25;4134186;28;20023;-73
2021/04/08 01:43:52;;;;;;;4.25;3.50;;;;;;;5.79;76.83;102132.84;4136406;28;20393;-73
2021/04/08 01:45:56;;;;;;;5.63;3.60;;;;;;;5.91;76.75;102145.25;4151234;28;20048;-73
2021/04/08 01:48:00;;;;;;;6.43;2.85;;;;;;;5.95;76.63;102136.25;4136271;28;20113;-73
2021/04/08 01:50:03;;;;;;;5.32;3.47;;;;;;;5.84;76.93;102141.25;4135938;28;20485;-73
2021/04/08 01:52:05;;;;;;;7.45;3.30;;;;;;;5.67;76.53;102144.03;4136155;28;20037;-73
2021/04/08 01:54:08;;;;;;;5.55;3.25;;;;;;;5.41;76.96;102146.38;4136220;28;20061;-73
2021/04/08 01:56:10;;;;;;;3.78;2.55;;;;;;;5.35;77.19;102151.13;4136050;28;20034;-73
2021/04/08 01:58:13;;;;;;;5.25;3.03;;;;;;;5.32;78.05;102146.06;4135882;28;20037;-73
2021/04/08 02:00:19;;;;;;;4.85;3.00;;;;;;;5.41;78.31;102141.16;4136134;28;20025;-73
2021/04/08 02:02:20;;;;;;;4.72;2.95;;;;;;;5.44;77.94;102151.44;4134756;28;20034;-73
2021/04/08 02:04:22;;;;;;;4.50;3.20;;;;;;;5.41;77.91;102149.00;4135753;28;20034;-73
2021/04/08 02:06:27;;;;;;;3.90;3.30;;;;;;;5.38;77.89;102153.56;4135263;28;20026;-73
2021/04/08 02:08:29;;;;;;;;;;;;;;;5.30;78.03;102153.19;4136515;28;20093;-73
2021/04/08 02:10:33;;;;;;;7.88;3.30;;;;;;;5.24;78.44;102150.91;4136085;28;20341;-73
2021/04/08 02:12:37;;;;;;;5.55;2.90;;;;;;;5.04;79.00;102154.66;4135793;28;20033;-73
2021/04/08 02:14:40;;;;;;;4.63;2.95;;;;;;;5.07;79.43;102149.25;4135972;28;20038;-73
2021/04/08 02:16:50;;;;;;;9.50;3.35;;;;;;;4.97;79.81;102153.31;4150949;28;20034;-73
2021/04/08 02:18:53;;;;;;;6.35;3.75;;;;;;;4.93;79.77;102149.16;4135826;28;20065;-73
2021/04/08 02:20:58;;;;;;;5.15;2.80;;;;;;;4.98;79.81;102148.00;4135844;28;20077;-74
2021/04/08 02:23:02;;;;;;;5.25;2.88;;;;;;;4.94;80.04;102153.47;4135735;28;20041;-73
2021/04/08 02:25:08;;;;;;;7.30;3.10;;;;;;;4.93;79.62;102150.03;4135855;28;20030;-74
2021/04/08 02:27:11;;;;;;;4.95;3.03;;;;;;;4.95;79.19;102148.19;4135755;28;20034;-73
2021/04/08 02:29:14;;;;;;;4.50;3.28;;;;;;;5.04;79.42;102149.44;4135924;28;20033;-73
2021/04/08 02:31:18;;;;;;;3.50;3.13;;;;;;;4.99;79.38;102139.22;4134623;28;20041;-73
2021/04/08 02:33:27;;;;;;;5.30;2.92;;;;;;;4.97;79.21;102142.84;4135685;28;20022;-73
2021/04/08 02:35:28;;;;;;;3.50;2.80;;;;;;;4.86;79.33;102138.25;4150390;28;20109;-73
2021/04/08 02:37:30;;;;;;;5.88;3.58;;;;;;;4.90;78.58;102138.88;4134316;28;20124;-73
2021/04/08 02:39:31;;;;;;;3.53;3.17;;;;;;;4.92;79.42;102139.66;4135723;28;20081;-73
2021/04/08 02:41:40;;;;;;;7.45;3.50;;;;;;;4.80;79.61;102137.72;4135782;28;20441;-73
2021/04/08 02:43:41;;;;;;;6.85;3.00;;;;;;;4.81;79.20;102145.47;4135865;28;20030;-73
2021/04/08 02:45:43;;;;;;;4.53;3.13;;;;;;;4.70;79.20;102126.09;4135706;28;20034;-73
2021/04/08 02:47:44;;;;;;;4.43;3.20;;;;;;;4.55;79.16;102133.00;4135595;28;20026;-73
2021/04/08 02:49:45;;;;;;;3.88;2.63;;;;;;;4.40;80.34;102139.03;4135426;28;20041;-73
2021/04/08 02:51:58;;;;;;;5.63;2.90;;;;;;;4.46;80.70;102131.72;4135846;28;20054;-73
2021/04/08 02:54:08;;;;;;;4.07;2.95;;;;;;;4.43;80.64;102128.44;4135732;28;20037;-72
2021/04/08 02:56:30;;;;;;;5.07;3.45;;;;;;;4.39;80.26;102127.75;4134374;28;20035;-73
2021/04/08 02:58:35;;;;;;;5.00;3.63;;;;;;;4.46;80.72;102129.13;4135744;28;20026;-74
2021/04/08 03:00:49;;;;;;;5.55;3.33;;;;;;;4.39;80.99;102126.94;4135630;28;20030;-73
2021/04/08 03:02:52;;;;;;;4.97;3.27;;;;;;;4.33;80.99;102128.06;4135564;28;20070;-73
2021/04/08 03:04:57;;;;;;;5.35;3.28;;;;;;;4.20;81.37;102121.00;4135592;28;20262;-73
2021/04/08 03:07:00;;;;;;;5.57;3.45;;;;;;;4.25;80.80;102121.56;4135754;28;20026;-73
2021/04/08 03:09:02;;;;;;;5.22;4.10;;;;;;;4.25;80.98;102119.81;4135614;28;20041;-73
2021/04/08 03:11:06;;;;;;;4.55;3.70;;;;;;;4.18;80.88;102115.00;4135468;28;20034;-74
2021/04/08 03:13:11;;;;;;;8.20;4.40;;;;;;;4.21;81.62;102115.66;4134299;28;20038;-73
2021/04/08 03:15:15;;;;;;;6.18;4.15;;;;;;;4.24;80.96;102112.09;4135577;28;20117;-73
2021/04/08 03:17:19;;;;;;;6.05;3.30;;;;;;;4.18;80.75;102120.25;4135586;28;20042;-73
2021/04/08 03:19:24;;;;;;;5.82;3.15;;;;;;;4.11;81.55;102113.66;4138057;28;20397;-73
2021/04/08 03:21:27;;;;;;;8.43;3.72;;;;;;;4.07;81.33;102109.50;4138740;28;20038;-73
2021/04/08 03:23:29;;;;;;;5.80;4.03;;;;;;;4.23;79.98;102107.78;4138516;28;20030;-73
2021/04/08 03:25:31;;;;;;;6.68;3.67;;;;;;;4.18;80.21;102105.38;4138485;28;20752;-73
2021/04/08 03:27:33;;;;;;;5.82;3.85;;;;;;;4.15;80.73;102102.94;4138488;28;20114;-73
2021/04/08 03:29:38;;;;;;;4.38;3.42;;;;;;;4.09;81.63;102100.66;4138450;28;20117;-73
2021/04/08 03:31:44;;;;;;;9.55;3.58;;;;;;;4.19;79.80;102099.25;4138490;28;20477;-73
2021/04/08 03:33:46;;;;;;;5.13;3.20;;;;;;;4.15;78.64;102102.94;4137929;28;20038;-73
2021/04/08 03:35:48;;;;;;;6.22;4.32;;;;;;;4.06;79.63;102100.81;4138445;28;20456;-73
2021/04/08 03:37:50;;;;;;;5.60;4.07;;;;;;;3.91;80.16;102093.81;4138221;28;20054;-73
2021/04/08 03:39:51;;;;;;;4.07;3.58;;;;;;;3.79;80.31;102091.84;4138345;28;20374;-73
2021/04/08 03:41:54;;;;;;;7.90;3.90;;;;;;;3.75;81.34;102096.38;4138229;28;20481;-73
2021/04/08 03:43:55;;;;;;;4.32;3.35;;;;;;;3.84;81.75;102093.28;4138319;28;20026;-73
2021/04/08 03:46:02;;;;;;;4.20;3.63;;;;;;;3.93;81.60;102099.78;4138230;28;20057;-73
2021/04/08 03:48:04;;;;;;;6.53;4.28;;;;;;;3.86;81.57;102095.81;4138108;28;20105;-73
2021/04/08 03:50:07;;;;;;;4.47;3.78;;;;;;;3.99;80.12;102096.00;4137630;28;20097;-73
2021/04/08 03:52:11;;;;;;;7.15;3.42;;;;;;;3.84;80.81;102090.69;4138060;28;20030;-73
2021/04/08 03:54:15;;;;;;;5.80;4.28;;;;;;;3.94;79.75;102093.66;4138264;28;20065;-74
2021/04/08 03:56:19;;;;;;;5.93;4.03;;;;;;;3.90;79.69;102081.69;4137534;28;20034;-73
2021/04/08 03:58:22;;;;;;;7.82;3.80;;;;;;;3.86;79.41;102095.81;4137947;28;20034;-73
2021/04/08 04:00:24;;;;;;;5.68;3.42;;;;;;;3.78;79.95;102087.53;4137966;28;20053;-73
2021/04/08 04:02:25;;;;;;;4.03;3.55;;;;;;;3.85;80.15;102086.31;4137899;28;20026;-73
2021/04/08 04:04:27;;;;;;;6.03;3.78;;;;;;;3.79;80.28;102090.06;4137553;28;20030;-73
2021/04/08 04:06:30;;;;;;;4.25;3.42;;;;;;;3.76;79.74;102092.81;4137852;28;20094;-73
2021/04/08 04:08:32;;;;;;;5.03;4.13;;;;;;;3.73;80.14;102085.16;4137913;28;20493;-73
2021/04/08 04:10:38;;;;;;;5.40;4.30;;;;;;;3.65;80.03;102076.03;4137793;28;20489;-73
2021/04/08 04:12:40;;;;;;;4.75;3.53;;;;;;;3.63;80.64;102077.91;4137559;28;20037;-73
2021/04/08 04:14:44;;;;;;;5.18;3.75;;;;;;;3.69;80.16;102083.66;4137723;28;20034;-73
2021/04/08 04:16:46;;;;;;;6.15;3.63;;;;;;;3.60;81.39;102076.28;4137539;28;20101;-73
2021/04/08 04:18:48;;;;;;;5.75;3.80;;;;;;;3.53;81.44;102084.50;4137565;28;20125;-73
2021/04/08 04:20:49;;;;;;;4.38;3.97;;;;;;;3.49;82.26;102076.00;4137508;28;20065;-73
2021/04/08 04:22:51;;;;;;;7.22;4.28;;;;;;;3.52;82.41;102080.22;4137581;28;20034;-73
2021/04/08 04:24:52;;;;;;;4.55;3.53;;;;;;;3.56;81.76;102082.56;4137332;28;20088;-73
2021/04/08 04:26:53;;;;;;;6.60;3.47;;;;;;;3.57;80.28;102075.59;4137609;28;20034;-73
2021/04/08 04:28:55;;;;;;;5.25;3.90;;;;;;;3.53;80.27;102074.91;4137327;28;20142;-73
2021/04/08 04:30:56;;;;;;;5.35;3.35;;;;;;;3.61;79.40;102074.53;4135524;28;20039;-73
2021/04/08 04:32:57;;;;;;;4.82;3.70;;;;;;;3.58;79.48;102080.75;4137457;28;20093;-73
2021/04/08 04:34:59;;;;;;;5.90;3.75;;;;;;;3.64;79.81;102071.75;4137339;28;20066;-73
2021/04/08 04:37:00;;;;;;;4.20;3.80;;;;;;;3.68;79.19;102076.72;4137570;28;20038;-74
2021/04/08 04:39:03;;;;;;;4.30;3.35;;;;;;;3.68;78.42;102074.13;4135879;28;20560;-73
2021/04/08 04:41:04;;;;;;;4.88;4.03;;;;;;;3.58;79.45;102074.69;4130009;28;20031;-73
2021/04/08 04:43:05;;;;;;;6.00;4.28;;;;;;;3.51;80.08;102070.69;4137346;28;20030;-72
2021/04/08 04:45:07;;;;;;;6.45;4.07;;;;;;;3.43;79.73;102075.47;4137207;28;20453;-73
2021/04/08 04:47:09;;;;;;;4.25;3.78;;;;;;;3.43;79.95;102075.47;4137104;28;20026;-73
2021/04/08 04:49:10;;;;;;;7.13;3.85;;;;;;;3.50;80.73;102080.28;4137017;28;20062;-73
2021/04/08 04:51:11;;;;;;;6.00;3.90;;;;;;;3.55;79.61;102074.84;4137214;28;20097;-73
2021/04/08 04:53:12;;;;;;;5.45;3.90;;;;;;;3.56;78.94;102077.34;4137001;28;20038;-74
2021/04/08 04:55:14;;;;;;;4.93;4.03;;;;;;;3.52;78.96;102081.06;4137161;28;20505;-73
2021/04/08 04:57:15;;;;;;;6.90;3.63;;;;;;;3.40;79.09;102078.22;4137100;28;20061;-73
2021/04/08 04:59:16;;;;;;;4.88;3.67;;;;;;;3.32;80.01;102073.38;4137138;28;20034;-73
2021/04/08 05:01:18;;;;;;;4.22;3.50;;;;;;;3.37;80.55;102081.84;4137066;28;20038;-73
2021/04/08 05:03:19;;;;;;;4.13;3.38;;;;;;;3.31;80.48;102076.94;4137027;28;20034;-73
2021/04/08 05:05:20;;;;;;;3.88;3.42;;;;;;;3.30;80.80;102076.09;4136812;28;20034;-73
2021/04/08 05:07:21;;;;;;;5.45;4.10;;;;;;;3.21;81.57;102079.16;4137012;28;20030;-73
2021/04/08 05:09:23;;;;;;;6.70;3.88;;;;;;;3.39;80.68;102074.78;4136734;28;20030;-73
2021/04/08 05:11:24;;;;;;;3.80;3.25;;;;;;;3.42;80.50;102078.97;4136856;28;20034;-73
2021/04/08 05:13:25;;;;;;;7.30;3.78;;;;;;;3.35;80.35;102079.28;4136720;28;20486;-73
2021/04/08 05:15:26;;;;;;;4.75;3.42;;;;;;;3.28;80.17;102072.72;4136803;28;20053;-73
2021/04/08 05:17:28;;;;;;;4.15;3.25;;;;;;;3.14;80.85;102075.16;4136620;28;20125;-73
2021/04/08 05:19:31;;;;;;;5.30;3.55;;;;;;;3.05;80.97;102070.38;4136592;28;20062;-73
2021/04/08 05:21:32;;;;;;;4.68;3.88;;;;;;;3.11;80.85;102067.47;4136956;28;20038;-73
2021/04/08 05:23:33;;;;;;;4.45;3.47;;;;;;;3.12;81.57;102066.56;4136861;28;20022;-73
2021/04/08 05:25:34;;;;;;;5.53;3.55;;;;;;;3.16;81.53;102069.88;4136797;28;20129;-73
2021/04/08 05:27:35;;;;;;;5.18;3.60;;;;;;;3.15;80.68;102076.00;4136330;28;20026;-73
2021/04/08 05:29:37;;;;;;;4.03;3.58;;;;;;;3.14;80.66;102064.72;4136657;28;20094;-74
2021/04/08 05:31:38;;;;;;;5.00;3.53;;;;;;;3.21;79.60;102071.31;4136643;28;20477;-73
2021/04/08 05:33:39;;;;;;;6.15;4.25;;;;;;;3.19;80.25;102067.13;4135783;28;20042;-73
2021/04/08 05:35:40;;;;;;;4.53;3.53;;;;;;;3.19;80.77;102062.75;4120614;28;20034;-73
2021/04/08 05:37:42;;;;;;;4.70;3.05;;;;;;;3.20;81.40;102068.78;4119911;28;20106;-73
2021/04/08 05:39:43;;;;;;;6.60;4.22;;;;;;;3.20;80.55;102064.41;4131127;28;20397;-73
2021/04/08 05:41:45;;;;;;;7.53;3.78;;;;;;;3.08;81.00;102062.41;4136155;28;20119;-73
2021/04/08 05:43:46;;;;;;;5.43;4.00;;;;;;;3.04;81.23;102067.88;4136428;28;20129;-74
2021/04/08 05:45:47;;;;;;;6.25;3.65;;;;;;;3.10;81.42;102071.03;4136244;28;20050;-73
2021/04/08 05:47:49;;;;;;;5.15;3.88;;;;;;;3.13;80.34;102067.41;4136272;28;20400;-71
2021/04/08 05:49:50;;;;;;;6.57;3.60;;;;;;;3.19;80.74;102069.72;4136146;28;20465;-71
2021/04/08 05:51:51;;;;;;;7.20;3.38;;;;;;;3.19;81.01;102067.97;4136233;28;20069;-72
2021/04/08 05:53:53;;;;;;;3.67;3.17;;;;;;;3.26;80.50;102069.31;4136191;28;20040;-71
2021/04/08 05:55:54;;;;;;;5.40;3.40;;;;;;;3.30;80.30;102073.47;4121860;28;20084;-71
2021/04/08 05:57:55;;;;;;;7.60;4.30;;;;;;;3.21;80.73;102062.66;4128035;28;20081;-71
2021/04/08 05:59:56;;;;;;;6.35;3.75;;;;;;;3.24;81.92;102065.97;4119701;28;20043;-71
2021/04/08 06:01:58;;;;;;;5.45;3.78;;;;;;;3.26;81.90;102073.69;4120061;28;20118;-70
2021/04/08 06:03:59;;;;;;;4.38;3.70;;;;;;;3.20;82.02;102069.63;4119620;28;20054;-71
2021/04/08 06:06:00;;;;;;;5.78;3.90;;;;;;;3.25;81.57;102065.06;4119617;28;20041;-71
2021/04/08 06:08:02;;;;;;;5.45;3.45;;;;;;;3.32;81.27;102066.41;4123259;28;20036;-70
2021/04/08 06:10:04;;;;;;;6.03;3.22;;;;;;;3.34;80.61;102072.38;4136101;28;20039;-71
2021/04/08 06:12:06;;;;;;;5.10;3.45;;;;;;;3.25;80.47;102072.03;4136048;28;20030;-71
2021/04/08 06:14:07;;;;;;;7.75;3.70;;;;;;;3.31;80.28;102071.72;4135969;28;20053;-70
2021/04/08 06:16:09;;;;;;;4.72;3.97;;;;;;;3.37;80.01;102075.78;4135837;28;20100;-70
2021/04/08 06:18:10;;;;;;;4.72;3.70;;;;;;;3.46;80.00;102070.09;4136004;28;20505;-70
2021/04/08 06:20:12;;;;;;;4.70;4.10;;;;;;;3.49;81.17;102077.75;4135729;28;20037;-71
2021/04/08 06:22:14;;;;;;;4.70;3.53;;;;;;;3.48;80.71;102074.31;4135800;28;20116;-71
2021/04/08 06:24:15;;;;;;;5.47;4.13;;;;;;;3.50;81.22;102061.16;4135907;28;20026;-71
2021/04/08 06:26:16;;;;;;;4.15;3.50;;;;;;;3.60;80.13;102068.47;4135572;28;20046;-72
2021/04/08 06:28:18;;;;;;;8.05;3.78;;;;;;;3.63;80.48;102065.69;4124065;28;20490;-71
2021/04/08 06:30:20;;;;;;;6.63;3.50;;;;;;;3.65;81.46;102065.59;4119293;28;20034;-71
2021/04/08 06:32:22;;;;;;;4.43;3.70;;;;;;;3.63;82.09;102064.84;4118458;28;20067;-71
2021/04/08 06:34:23;;;;;;;1040.68;814.85;;;;;;;3.64;81.47;102064.78;4119194;28;20026;-71
2021/04/08 06:36:24;;;;;;;104.35;94.93;;;;;;;3.60;82.30;102065.84;4118647;28;20031;-73
2021/04/08 06:38:25;;;;;;;16.63;15.23;;;;;;;3.75;83.98;102072.03;4119330;28;20529;-72
2021/04/08 06:40:27;;;;;;;5.07;3.70;;;;;;;3.77;84.97;102073.66;4135794;28;20038;-72
2021/04/08 06:42:28;;;;;;;4.90;4.20;;;;;;;3.90;83.67;102072.09;4135775;28;20035;-72
2021/04/08 06:44:31;;;;;;;4.47;3.80;;;;;;;3.95;83.64;102064.00;4135697;28;20042;-72
2021/04/08 06:46:39;;;;;;;4.55;4.05;;;;;;;3.87;83.91;102071.41;4135469;28;20058;-72
2021/04/08 06:49:07;;;;;;;4.10;3.22;;;;;;;4.01;83.79;102073.28;4135540;28;20057;-72
2021/04/08 06:51:15;;;;;;;5.50;3.40;;;;;;;4.09;83.81;102073.72;4134382;28;20489;-72
2021/04/08 06:53:17;;;;;;;8.32;4.38;;;;;;;4.21;83.88;102080.91;4136782;28;20038;-72
2021/04/08 06:55:21;;;;;;;8.25;4.22;;;;;;;4.36;84.40;102083.50;4138967;28;20056;-72
2021/04/08 06:57:23;;;;;;;5.65;4.22;;;;;;;4.45;83.63;102084.75;4138885;28;20030;-72
2021/04/08 06:59:25;;;;;;;7.72;4.50;;;;;;;4.61;83.32;102090.84;4138931;28;20045;-72
2021/04/08 07:01:27;;;;;;;7.47;4.82;;;;;;;4.75;82.58;102083.06;4138749;28;20037;-72
2021/04/08 07:03:28;;;;;;;8.43;4.40;;;;;;;4.96;81.88;102089.72;4138672;28;20122;-72
2021/04/08 07:05:30;;;;;;;8.52;4.55;;;;;;;5.03;82.35;102082.38;4137524;28;20069;-72
2021/04/08 07:07:31;;;;;;;7.75;4.13;;;;;;;5.11;81.85;102080.13;4138745;28;20042;-72
2021/04/08 07:09:32;;;;;;;7.40;4.30;;;;;;;5.15;81.91;102084.28;4138520;28;20436;-72
2021/04/08 07:11:38;;;;;;;5.22;4.30;;;;;;;5.14;82.48;102079.97;4138949;28;20520;-73
2021/04/08 07:13:40;;;;;;;8.88;5.03;;;;;;;5.25;82.41;102076.75;4138643;28;20030;-73
2021/04/08 07:15:41;;;;;;;6.18;3.80;;;;;;;5.40;82.31;102070.63;4138557;28;20058;-73
2021/04/08 07:17:43;;;;;;;6.75;4.05;;;;;;;5.42;82.33;102069.59;4138517;28;20043;-72
2021/04/08 07:19:45;;;;;;;9.57;4.55;;;;;;;5.48;81.78;102069.22;4138371;28;20038;-72
2021/04/08 07:21:46;;;;;;;7.35;4.63;;;;;;;5.43;82.55;102073.06;4138529;28;20096;-73
2021/04/08 07:24:13;;;;;;;7.65;4.53;;;;;;;5.60;81.99;102078.13;4138365;28;20031;-73
2021/04/08 07:26:15;;;;;;;5.65;4.35;;;;;;;5.61;83.41;102074.56;4138544;28;20517;-73
2021/04/08 07:28:38;;;;;;;7.10;4.38;;;;;;;5.73;82.19;102078.22;4138316;28;20061;-73
2021/04/08 07:30:39;;;;;;;8.57;4.40;;;;;;;5.86;82.35;102081.81;4138073;28;20409;-72
2021/04/08 07:32:41;;;;;;;11.55;4.22;;;;;;;5.99;81.70;102080.97;4138123;28;20397;-72
2021/04/08 07:34:51;;;;;;;7.10;4.28;;;;;;;5.85;80.83;102074.88;4137910;28;20088;-72
2021/04/08 07:36:54;;;;;;;7.57;4.13;;;;;;;5.74;81.84;102072.88;4138109;28;20031;-72
2021/04/08 07:38:56;;;;;;;7.00;4.53;;;;;;;5.85;81.88;102069.63;4137807;28;20054;-72
2021/04/08 07:40:59;;;;;;;5.97;3.80;;;;;;;6.13;80.57;102070.50;4138072;28;20113;-72
2021/04/08 07:43:20;;;;;;;7.10;4.10;;;;;;;6.31;80.66;102071.13;4138151;28;20033;-72
2021/04/08 07:45:24;;;;;;;8.65;3.90;;;;;;;6.30;79.09;102069.44;4137971;28;20034;-72
2021/04/08 07:47:30;;;;;;;8.73;4.63;;;;;;;6.12;80.25;102067.97;4137835;28;20034;-72
2021/04/08 07:49:33;;;;;;;9.65;4.15;;;;;;;6.20;79.94;102062.25;4137711;28;20030;-72
2021/04/08 07:51:35;;;;;;;5.90;3.70;;;;;;;6.32;79.85;102061.47;4137778;28;20026;-72
2021/04/08 07:53:36;;;;;;;6.05;4.10;;;;;;;6.18;80.17;102069.38;4138029;28;20576;-72
2021/04/08 07:55:38;;;;;;;10.50;4.32;;;;;;;6.05;80.43;102064.06;4137986;28;20070;-72
2021/04/08 07:58:00;;;;;;;6.97;4.75;;;;;;;6.16;81.82;102058.97;4137887;28;20049;-72
2021/04/08 08:00:34;;;;;;;5.60;3.92;;;;;;;6.26;81.16;102062.72;4137973;28;20485;-72
2021/04/08 08:02:39;;;;;;;10.63;5.03;;;;;;;6.29;82.38;102065.16;4137600;28;20066;-72
2021/04/08 08:04:41;;;;;;;6.63;4.13;;;;;;;6.39;82.20;102065.41;4136142;28;20038;-72
2021/04/08 08:06:42;;;;;;;7.55;3.30;;;;;;;6.59;81.18;102065.81;4137816;28;20031;-72
2021/04/08 08:08:45;;;;;;;7.13;3.88;;;;;;;6.55;80.66;102059.09;4137782;28;20026;-72
2021/04/08 08:11:03;;;;;;;6.72;3.08;;;;;;;6.69;79.65;102061.66;4137746;28;20037;-72
2021/04/08 08:13:06;;;;;;;5.82;3.60;;;;;;;6.84;80.90;102053.75;4137670;28;20073;-73
2021/04/08 08:15:19;;;;;;;4.93;3.45;;;;;;;6.85;80.40;102069.38;4137765;28;20034;-73
2021/04/08 08:17:20;;;;;;;6.25;4.35;;;;;;;6.88;78.93;102060.47;4137632;28;20066;-73
2021/04/08 08:19:21;;;;;;;5.15;2.92;;;;;;;7.01;78.23;102056.09;4137411;28;20062;-73
2021/04/08 08:21:37;;;;;;;7.72;3.17;;;;;;;7.14;78.66;102051.72;4137615;28;20030;-73
2021/04/08 08:23:40;;;;;;;5.60;3.45;;;;;;;7.38;77.94;102044.81;4137368;28;20027;-73
2021/04/08 08:25:41;;;;;;;6.80;2.75;;;;;;;7.54;77.39;102055.13;4137247;28;20042;-73
2021/04/08 08:27:46;;;;;;;6.90;2.95;;;;;;;7.44;77.10;102052.28;4137253;28;20034;-73
2021/04/08 08:29:57;;;;;;;10.23;4.00;;;;;;;7.48;76.88;102048.53;4137209;28;20023;-73
2021/04/08 08:32:01;;;;;;;6.75;3.13;;;;;;;7.48;76.61;102048.53;4137203;28;20406;-72
2021/04/08 08:34:07;;;;;;;5.43;3.05;;;;;;;7.56;78.00;102040.94;4136933;28;20061;-72
2021/04/08 08:36:09;;;;;;;6.55;2.95;;;;;;;7.80;77.47;102052.41;4137334;28;20031;-72
2021/04/08 08:38:14;;;;;;;4.85;2.60;;;;;;;7.86;75.21;102039.78;4137004;28;20078;-72
2021/04/08 08:40:15;;;;;;;5.50;2.63;;;;;;;8.05;75.37;102048.06;4137145;28;20034;-72
2021/04/08 08:42:21;;;;;;;6.95;2.90;;;;;;;8.14;74.13;102047.41;4137113;28;20038;-72
2021/04/08 08:44:23;;;;;;;6.70;2.30;;;;;;;8.34;73.83;102046.88;4137012;28;20027;-72
2021/04/08 08:46:26;;;;;;;4.00;2.40;;;;;;;8.43;72.81;102042.72;4136863;28;20034;-72
2021/04/08 08:48:28;;;;;;;6.40;2.53;;;;;;;8.52;70.85;102044.69;4136663;28;20464;-72
2021/04/08 08:50:30;;;;;;;11.35;3.03;;;;;;;8.55;71.04;102045.31;4137007;28;20049;-72
2021/04/08 08:52:37;;;;;;;12.23;3.40;;;;;;;8.27;69.22;102040.34;4136737;28;20061;-72
2021/04/08 08:54:39;;;;;;;5.10;2.97;;;;;;;8.51;69.91;102038.59;4136733;28;20031;-72
2021/04/08 08:56:40;;;;;;;7.68;3.25;;;;;;;8.88;68.98;102036.75;4136991;28;20062;-73
2021/04/08 08:58:42;;;;;;;5.70;3.15;;;;;;;8.86;69.13;102036.88;4137076;28;20026;-72
2021/04/08 09:00:43;;;;;;;5.00;3.00;;;;;;;8.90;68.50;102034.84;4136970;28;20112;-72
2021/04/08 09:02:46;;;;;;;4.97;2.80;;;;;;;8.62;65.65;102043.94;4136892;28;20520;-73
2021/04/08 09:04:47;;;;;;;6.93;3.15;;;;;;;8.69;67.03;102041.72;4135374;28;20030;-73
2021/04/08 09:06:49;;;;;;;5.25;2.60;;;;;;;9.03;66.17;102034.78;4135732;28;20045;-73
2021/04/08 09:08:56;;;;;;;5.10;2.70;;;;;;;8.95;66.24;102031.88;4136985;28;20430;-73
2021/04/08 09:10:58;;;;;;;6.30;2.55;;;;;;;9.23;65.42;102031.47;4136558;28;20138;-72
2021/04/08 09:13:00;;;;;;;3.08;2.38;;;;;;;9.14;66.59;102032.19;4136695;28;20043;-72
2021/04/08 09:15:04;;;;;;;8.85;2.75;;;;;;;9.24;65.96;102036.63;4136773;28;20490;-72
2021/04/08 09:17:05;;;;;;;;;;;;;;;9.20;64.85;102023.84;4136616;28;20038;-72
2021/04/08 09:19:09;;;;;;;6.05;3.00;;;;;;;9.48;64.86;102026.03;4136313;28;20032;-72
2021/04/08 09:21:10;;;;;;;4.53;3.03;;;;;;;9.48;64.15;102025.19;4136735;28;20030;-72
2021/04/08 09:23:13;;;;;;;5.57;2.95;;;;;;;9.76;62.90;102028.22;4136536;28;20500;-72
2021/04/08 09:25:19;;;;;;;8.07;3.22;;;;;;;9.96;64.69;102019.59;4136747;28;20409;-72
2021/04/08 09:27:22;;;;;;;5.05;3.15;;;;;;;9.84;64.28;102023.19;4136631;28;20104;-72
2021/04/08 09:29:36;;;;;;;4.50;3.30;;;;;;;9.97;63.71;102017.81;4135447;28;20026;-72
2021/04/08 09:31:37;;;;;;;6.65;3.13;;;;;;;9.77;61.22;102010.59;4136381;28;20034;-72
2021/04/08 09:33:45;;;;;;;4.00;2.95;;;;;;;9.60;63.07;102014.56;4136023;28;20113;-72
2021/04/08 09:35:47;;;;;;;5.75;3.03;;;;;;;9.93;62.41;102011.06;4136520;28;20037;-72
2021/04/08 09:37:51;;;;;;;4.22;2.55;;;;;;;9.95;60.98;102006.50;4136241;28;20509;-72
2021/04/08 09:39:52;;;;;;;;;;;;;;;10.05;63.00;102009.28;4136693;28;20512;-72
2021/04/08 09:42:02;;;;;;;9.95;3.47;;;;;;;10.20;61.80;102006.28;4136123;28;19909;-73